This is the latest recevied weather packets stored in our database for station/object W7JFO-3. If no packets are shown the sender has not sent any weather packets the latest 10 day(s).
| Time | Temp. | Humidity | Pressure | Rain* | Wind** | Luminosity | Snow |
|---|---|---|---|---|---|---|---|
| 1777212125 | 0° C | 74% | 1010 hPa | 0 mm | - | 251 W/m² | - |
| 1777211225 | -1.11° C | 75% | 1010.3 hPa | 0 mm | - | 207 W/m² | - |
| 1777210325 | -1.67° C | 79% | 1009.8 hPa | 0 mm | - | 104 W/m² | - |
| 1777209425 | -2.22° C | 85% | 1009.7 hPa | 0 mm | - | 39 W/m² | - |
| 1777208526 | -2.22° C | 91% | 1009.7 hPa | 0 mm | - | 14 W/m² | - |
| 1777207625 | -1.67° C | 92% | 1009.6 hPa | 0 mm | - | 9 W/m² | - |
| 1777206725 | -1.67° C | 91% | 1009.4 hPa | 0 mm | - | 0 W/m² | - |
| 1777205826 | -1.67° C | 89% | 1009.4 hPa | 0 mm | - | 0 W/m² | - |
| 1777204926 | -1.11° C | 88% | 1009.5 hPa | 0 mm | - | 0 W/m² | - |
| 1777204026 | -1.11° C | 85% | 1009.7 hPa | 0 mm | - | 0 W/m² | - |
| 1777203126 | -1.11° C | 85% | 1009.4 hPa | 0 mm | - | 0 W/m² | - |
| 1777202226 | -1.11° C | 87% | 1009.5 hPa | 0 mm | - | 0 W/m² | - |
| 1777201326 | -1.11° C | 89% | 1009.4 hPa | 0 mm | - | 0 W/m² | - |
| 1777200426 | -0.56° C | 84% | 1009.5 hPa | 0 mm | - | 0 W/m² | - |
| 1777199526 | 0° C | 79% | 1009.2 hPa | 0 mm | - | 0 W/m² | - |
| 1777198626 | 0° C | 79% | 1009.2 hPa | 0 mm | - | 0 W/m² | - |
| 1777197726 | 0° C | 78% | 1009.5 hPa | 0 mm | - | 0 W/m² | - |
| 1777196826 | 0° C | 79% | 1009.3 hPa | 0 mm | - | 0 W/m² | - |
| 1777195926 | 0° C | 79% | 1009.3 hPa | 0 mm | - | 0 W/m² | - |
| 1777195026 | 0.56° C | 78% | 1009.4 hPa | 0 mm | - | 0 W/m² | - |
| 1777194126 | 0° C | 77% | 1009.6 hPa | 0 mm | - | 0 W/m² | - |
| 1777193226 | 0° C | 77% | 1009.8 hPa | 0 mm | - | 0 W/m² | - |
| 1777192326 | 0° C | 79% | 1009.7 hPa | 0 mm | - | 0 W/m² | - |
| 1777191426 | 0° C | 79% | 1009.8 hPa | 0 mm | - | 0 W/m² | - |
| 1777190526 | 0° C | 80% | 1010.1 hPa | 0 mm | - | 0 W/m² | - |
* Rain latest hour (hover to see other rain measurements)
** Current wind speed in m/s (hover to see current wind gust speed)